EDT,Max TemperatureF,Mean TemperatureF,Min TemperatureF,Max Dew PointF,MeanDew PointF,Min DewpointF,Max Humidity, Mean Humidity, Min Humidity, Max Sea Level PressureIn, Mean Sea Level PressureIn, Min Sea Level PressureIn, Max VisibilityMiles, Mean VisibilityMiles, Min VisibilityMiles, Max Wind SpeedMPH, Mean Wind SpeedMPH, Max Gust SpeedMPH,PrecipitationIn, CloudCover, Events, WindDirDegrees
2012-9-1,84,72,61,64,61,57,97,71,49,30.12,30.01,29.88,10,10,6,13,2,21,0.00,3,,112
2012-9-2,82,68,55,61,57,49,93,71,34,30.17,30.10,30.04,10,10,10,26,3,,0.00,4,,140
2012-9-3,78,64,51,60,55,50,100,80,43,30.24,30.19,30.14,10,8,0,10,2,,0.00,4,Fog,175
2012-9-4,75,68,62,72,65,56,100,89,73,30.15,30.00,29.85,10,9,2,7,3,,0.11,8,Rain,163
2012-9-5,81,72,64,72,69,63,100,86,54,29.86,29.77,29.71,10,7,1,15,9,25,1.67,7,Rain-Thunderstorm,212
2012-9-6,78,70,62,67,64,61,100,89,62,29.92,29.88,29.85,10,7,0,9,1,,0.00,5,Fog,182
2012-9-7,84,74,64,70,65,55,100,87,38,29.96,29.91,29.87,10,6,0,6,1,,0.01,6,Fog-Thunderstorm,192
2012-9-8,80,70,60,72,67,59,100,83,56,29.89,29.72,29.58,10,9,2,20,10,34,0.46,7,Rain-Thunderstorm,184
2012-9-9,75,64,55,58,55,51,97,76,48,29.88,29.82,29.75,10,10,10,9,2,,0.01,1,,296
2012-9-10,68,57,46,54,47,42,100,76,40,30.10,29.97,29.88,10,8,0,20,3,26,0.00,2,Fog,336
2012-9-11,72,54,37,47,42,37,100,71,33,30.30,30.21,30.11,10,10,10,12,2,20,0.00,0,,308
2012-9-12,77,58,42,58,48,39,100,80,39,30.38,30.34,30.30,10,8,1,8,1,,0.00,0,,182
2012-9-13,80,63,46,61,52,46,100,91,42,30.38,30.34,30.27,10,4,0,10,1,,0.00,2,Fog,169
2012-9-14,80,65,51,61,56,52,100,91,47,30.28,30.24,30.08,10,4,0,12,1,,0.01,3,Fog,187
2012-9-15,71,59,46,61,51,42,96,71,38,30.09,30.06,30.02,10,10,7,18,6,24,0.07,2,Rain,292
2012-9-16,70,54,39,48,43,37,100,81,31,30.11,30.07,30.02,10,8,0,10,1,,0.00,3,Fog,289
2012-9-17,73,55,37,57,47,36,100,87,51,30.12,30.07,30.03,10,6,0,10,1,,0.00,1,Fog,162
2012-9-18,72,61,50,68,57,48,100,93,81,30.05,29.92,29.63,10,6,1,21,3,34,0.98,5,Rain,169
2012-9-19,68,56,44,65,48,39,97,70,36,30.22,29.95,29.68,10,10,6,20,10,30,0.00,4,Rain,299
2012-9-20,66,52,39,49,43,38,97,70,40,30.27,30.21,30.15,10,10,10,7,2,,0.00,1,,174
2012-9-21,70,56,44,52,48,44,100,80,49,30.18,30.12,30.06,10,10,10,12,2,,0.00,2,,161
2012-9-22,73,60,48,63,54,46,100,83,55,30.04,29.92,29.81,10,9,2,14,4,20,0.34,6,Rain-Thunderstorm,210
2012-9-23,66,53,41,61,49,36,100,77,38,30.12,29.96,29.81,10,10,4,13,4,21,0.11,3,Rain,299
2012-9-24,62,49,37,44,39,33,100,82,38,30.16,30.12,30.07,10,6,0,9,1,,0.00,3,Fog-Rain,279
2012-9-25,70,52,33,53,40,34,100,79,32,30.17,30.13,30.11,10,6,0,17,2,25,0.00,3,Fog,197
2012-9-26,69,64,59,61,58,53,94,81,64,30.12,30.05,30.00,10,10,10,14,8,21,0.00,8,Rain,195
2012-9-27,69,56,44,60,51,38,100,84,35,30.27,30.11,30.01,10,6,0,8,1,,0.00,3,Fog-Rain,259
2012-9-28,54,50,46,52,49,44,100,95,90,30.26,30.14,30.00,10,6,2,8,3,,1.42,8,Rain,11
2012-9-29,57,54,51,54,51,49,100,90,81,29.99,29.94,29.89,10,10,7,7,4,,0.01,8,Rain,342
2012-9-30,61,54,48,55,52,46,100,89,69,29.91,29.82,29.72,10,10,5,6,1,,0.16,7,Rain-Thunderstorm,289